sensor_id;sensor_type;location;lat;lon;timestamp;pressure;altitude;pressure_sealevel;temperature;humidity
73267;BME280;61495;53.400;7.608;2023-09-19T00:00:23;100278.22;;;16.33;100.00
73267;BME280;61495;53.400;7.608;2023-09-19T00:02:55;100286.28;;;16.28;100.00
73267;BME280;61495;53.400;7.608;2023-09-19T00:05:33;100289.53;;;16.30;99.33
73267;BME280;61495;53.400;7.608;2023-09-19T00:08:00;100289.78;;;16.24;99.21
73267;BME280;61495;53.400;7.608;2023-09-19T00:10:29;100298.13;;;16.22;99.71
73267;BME280;61495;53.400;7.608;2023-09-19T00:12:59;100298.84;;;16.12;100.00
73267;BME280;61495;53.400;7.608;2023-09-19T00:15:26;100303.47;;;16.12;99.32
73267;BME280;61495;53.400;7.608;2023-09-19T00:17:56;100304.25;;;16.12;99.15
73267;BME280;61495;53.400;7.608;2023-09-19T00:20:22;100306.91;;;16.07;98.74
73267;BME280;61495;53.400;7.608;2023-09-19T00:22:50;100310.94;;;16.05;99.31
73267;BME280;61495;53.400;7.608;2023-09-19T00:25:17;100312.28;;;16.02;99.18
73267;BME280;61495;53.400;7.608;2023-09-19T00:27:43;100321.44;;;16.01;99.64
73267;BME280;61495;53.400;7.608;2023-09-19T00:30:11;100319.75;;;15.95;99.80
73267;BME280;61495;53.400;7.608;2023-09-19T00:32:42;100327.88;;;15.95;98.72
73267;BME280;61495;53.400;7.608;2023-09-19T00:35:08;100329.16;;;15.88;99.61
73267;BME280;61495;53.400;7.608;2023-09-19T00:37:35;100323.44;;;15.84;99.28
73267;BME280;61495;53.400;7.608;2023-09-19T00:40:02;100332.59;;;15.83;99.84
73267;BME280;61495;53.400;7.608;2023-09-19T00:42:29;100338.50;;;15.80;98.40
73267;BME280;61495;53.400;7.608;2023-09-19T00:44:55;100331.13;;;15.71;98.42
73267;BME280;61495;53.400;7.608;2023-09-19T00:47:20;100334.53;;;15.61;98.33
73267;BME280;61495;53.400;7.608;2023-09-19T00:49:46;100334.00;;;15.64;98.09
73267;BME280;61495;53.400;7.608;2023-09-19T00:52:18;100329.13;;;15.61;98.06
73267;BME280;61495;53.400;7.608;2023-09-19T00:54:49;100337.97;;;15.56;98.89
73267;BME280;61495;53.400;7.608;2023-09-19T00:57:14;100346.84;;;15.52;98.95
73267;BME280;61495;53.400;7.608;2023-09-19T00:59:41;100344.06;;;15.47;98.36
73267;BME280;61495;53.400;7.608;2023-09-19T01:02:07;100344.53;;;15.44;99.81
73267;BME280;61495;53.400;7.608;2023-09-19T01:04:34;100345.03;;;15.41;99.91
73267;BME280;61495;53.400;7.608;2023-09-19T01:06:59;100345.53;;;15.38;98.92
73267;BME280;61495;53.400;7.608;2023-09-19T01:09:25;100353.06;;;15.36;99.91
73267;BME280;61495;53.400;7.608;2023-09-19T01:11:53;100363.13;;;15.40;99.73
73267;BME280;61495;53.400;7.608;2023-09-19T01:14:31;100364.34;;;15.33;100.00
73267;BME280;61495;53.400;7.608;2023-09-19T01:17:20;100363.75;;;15.26;100.00
73267;BME280;61495;53.400;7.608;2023-09-19T01:20:03;100372.41;;;15.28;98.82
73267;BME280;61495;53.400;7.608;2023-09-19T01:28:20;100378.13;;;15.15;98.62
73267;BME280;61495;53.400;7.608;2023-09-19T01:30:52;100372.19;;;15.13;98.84
73267;BME280;61495;53.400;7.608;2023-09-19T01:33:23;100380.75;;;15.10;99.37
73267;BME280;61495;53.400;7.608;2023-09-19T01:35:48;100379.63;;;15.06;98.98
73267;BME280;61495;53.400;7.608;2023-09-19T01:38:14;100387.72;;;15.06;99.31
73267;BME280;61495;53.400;7.608;2023-09-19T01:40:49;100385.28;;;15.04;98.75
73267;BME280;61495;53.400;7.608;2023-09-19T01:43:25;100384.31;;;14.93;99.90
73267;BME280;61495;53.400;7.608;2023-09-19T01:49:29;100391.47;;;14.88;99.78
73267;BME280;61495;53.400;7.608;2023-09-19T01:52:13;100382.59;;;14.87;99.68
73267;BME280;61495;53.400;7.608;2023-09-19T01:54:51;100392.91;;;14.90;99.70
73267;BME280;61495;53.400;7.608;2023-09-19T01:57:29;100386.03;;;14.83;98.80
73267;BME280;61495;53.400;7.608;2023-09-19T02:00:15;100404.66;;;14.84;98.74
73267;BME280;61495;53.400;7.608;2023-09-19T02:02:45;100390.03;;;14.80;97.57
73267;BME280;61495;53.400;7.608;2023-09-19T02:05:11;100402.34;;;14.76;97.87
73267;BME280;61495;53.400;7.608;2023-09-19T02:07:38;100404.50;;;14.74;98.14
73267;BME280;61495;53.400;7.608;2023-09-19T02:10:05;100399.25;;;14.68;96.69
73267;BME280;61495;53.400;7.608;2023-09-19T02:12:31;100406.63;;;14.72;97.79
73267;BME280;61495;53.400;7.608;2023-09-19T02:14:58;100410.63;;;14.70;97.61
73267;BME280;61495;53.400;7.608;2023-09-19T02:17:26;100409.22;;;14.67;97.52
73267;BME280;61495;53.400;7.608;2023-09-19T02:19:55;100411.75;;;14.57;97.42
73267;BME280;61495;53.400;7.608;2023-09-19T02:22:21;100411.16;;;14.55;97.06
73267;BME280;61495;53.400;7.608;2023-09-19T02:24:48;100410.94;;;14.57;97.40
73267;BME280;61495;53.400;7.608;2023-09-19T02:27:13;100409.53;;;14.54;97.58
73267;BME280;61495;53.400;7.608;2023-09-19T02:29:44;100420.81;;;14.51;96.66
73267;BME280;61495;53.400;7.608;2023-09-19T02:32:09;100418.69;;;14.53;97.59
73267;BME280;61495;53.400;7.608;2023-09-19T02:34:35;100407.34;;;14.51;96.74
73267;BME280;61495;53.400;7.608;2023-09-19T02:37:03;100400.69;;;14.42;96.78
73267;BME280;61495;53.400;7.608;2023-09-19T02:39:30;100407.16;;;14.41;96.24
73267;BME280;61495;53.400;7.608;2023-09-19T02:41:56;100409.00;;;14.40;96.57
73267;BME280;61495;53.400;7.608;2023-09-19T02:44:21;100408.00;;;14.30;96.14
73267;BME280;61495;53.400;7.608;2023-09-19T02:46:49;100420.19;;;14.32;96.91
73267;BME280;61495;53.400;7.608;2023-09-19T02:49:14;100417.13;;;14.29;96.02
73267;BME280;61495;53.400;7.608;2023-09-19T02:51:40;100417.13;;;14.29;97.21
73267;BME280;61495;53.400;7.608;2023-09-19T02:54:05;100418.44;;;14.26;96.77
73267;BME280;61495;53.400;7.608;2023-09-19T02:56:31;100425.94;;;14.24;96.63
73267;BME280;61495;53.400;7.608;2023-09-19T02:58:57;100421.53;;;14.18;97.38
73267;BME280;61495;53.400;7.608;2023-09-19T03:01:25;100414.75;;;14.16;96.40
73267;BME280;61495;53.400;7.608;2023-09-19T03:03:52;100429.75;;;14.12;96.33
73267;BME280;61495;53.400;7.608;2023-09-19T03:06:18;100427.31;;;14.10;96.95
73267;BME280;61495;53.400;7.608;2023-09-19T03:08:45;100427.06;;;14.12;96.75
73267;BME280;61495;53.400;7.608;2023-09-19T03:11:12;100425.41;;;14.11;97.13
73267;BME280;61495;53.400;7.608;2023-09-19T03:13:40;100426.69;;;14.08;96.83
73267;BME280;61495;53.400;7.608;2023-09-19T03:16:07;100432.56;;;14.05;97.12
73267;BME280;61495;53.400;7.608;2023-09-19T03:18:36;100446.44;;;13.97;96.68
73267;BME280;61495;53.400;7.608;2023-09-19T03:21:02;100435.78;;;13.90;97.32
73267;BME280;61495;53.400;7.608;2023-09-19T03:23:28;100434.03;;;13.84;98.02
73267;BME280;61495;53.400;7.608;2023-09-19T03:25:54;100439.41;;;13.84;97.37
73267;BME280;61495;53.400;7.608;2023-09-19T03:28:21;100438.38;;;13.85;97.99
73267;BME280;61495;53.400;7.608;2023-09-19T03:31:05;100440.72;;;13.82;98.66
73267;BME280;61495;53.400;7.608;2023-09-19T03:33:31;100438.16;;;13.75;97.59
73267;BME280;61495;53.400;7.608;2023-09-19T03:35:58;100441.91;;;13.74;98.15
73267;BME280;61495;53.400;7.608;2023-09-19T03:38:25;100439.31;;;13.79;97.99
73267;BME280;61495;53.400;7.608;2023-09-19T03:40:50;100444.84;;;13.73;98.88
73267;BME280;61495;53.400;7.608;2023-09-19T03:43:16;100441.69;;;13.64;99.46
73267;BME280;61495;53.400;7.608;2023-09-19T03:45:42;100438.44;;;13.62;99.72
73267;BME280;61495;53.400;7.608;2023-09-19T03:48:09;100450.72;;;13.58;100.00
73267;BME280;61495;53.400;7.608;2023-09-19T03:50:34;100440.19;;;13.57;100.00
73267;BME280;61495;53.400;7.608;2023-09-19T03:53:00;100440.03;;;13.63;100.00
73267;BME280;61495;53.400;7.608;2023-09-19T03:55:25;100440.41;;;13.55;100.00
73267;BME280;61495;53.400;7.608;2023-09-19T03:57:52;100447.56;;;13.61;100.00
73267;BME280;61495;53.400;7.608;2023-09-19T04:00:18;100438.53;;;13.56;100.00
73267;BME280;61495;53.400;7.608;2023-09-19T04:02:48;100432.44;;;13.60;100.00
73267;BME280;61495;53.400;7.608;2023-09-19T04:05:14;100444.97;;;13.55;100.00
73267;BME280;61495;53.400;7.608;2023-09-19T04:07:39;100444.16;;;13.54;100.00
73267;BME280;61495;53.400;7.608;2023-09-19T04:10:06;100443.09;;;13.55;100.00
73267;BME280;61495;53.400;7.608;2023-09-19T04:12:34;100445.59;;;13.57;100.00
73267;BME280;61495;53.400;7.608;2023-09-19T04:15:00;100438.66;;;13.49;100.00
73267;BME280;61495;53.400;7.608;2023-09-19T04:17:25;100464.53;;;13.50;100.00
73267;BME280;61495;53.400;7.608;2023-09-19T04:19:51;100450.00;;;13.51;100.00
73267;BME280;61495;53.400;7.608;2023-09-19T04:22:17;100457.28;;;13.51;99.87
73267;BME280;61495;53.400;7.608;2023-09-19T04:24:42;100458.91;;;13.52;100.00
73267;BME280;61495;53.400;7.608;2023-09-19T04:27:08;100454.25;;;13.47;100.00
73267;BME280;61495;53.400;7.608;2023-09-19T04:29:35;100452.59;;;13.46;100.00
73267;BME280;61495;53.400;7.608;2023-09-19T04:32:00;100469.78;;;13.45;100.00
73267;BME280;61495;53.400;7.608;2023-09-19T04:34:26;100482.78;;;13.48;100.00
73267;BME280;61495;53.400;7.608;2023-09-19T04:36:52;100478.94;;;13.44;100.00
73267;BME280;61495;53.400;7.608;2023-09-19T04:39:18;100472.84;;;13.37;100.00
73267;BME280;61495;53.400;7.608;2023-09-19T04:41:43;100481.63;;;13.44;100.00
73267;BME280;61495;53.400;7.608;2023-09-19T04:44:11;100481.03;;;13.42;99.89
73267;BME280;61495;53.400;7.608;2023-09-19T04:46:37;100485.47;;;13.36;99.74
73267;BME280;61495;53.400;7.608;2023-09-19T04:49:02;100489.22;;;13.35;99.48
73267;BME280;61495;53.400;7.608;2023-09-19T04:51:28;100480.78;;;13.32;99.91
73267;BME280;61495;53.400;7.608;2023-09-19T04:53:58;100486.19;;;13.32;100.00
73267;BME280;61495;53.400;7.608;2023-09-19T04:56:23;100476.59;;;13.36;100.00
73267;BME280;61495;53.400;7.608;2023-09-19T04:58:49;100469.78;;;13.33;99.88
73267;BME280;61495;53.400;7.608;2023-09-19T05:01:14;100487.94;;;13.38;100.00
73267;BME280;61495;53.400;7.608;2023-09-19T05:03:40;100488.16;;;13.36;99.58
73267;BME280;61495;53.400;7.608;2023-09-19T05:06:06;100493.69;;;13.30;100.00
73267;BME280;61495;53.400;7.608;2023-09-19T05:08:31;100501.13;;;13.28;99.82
73267;BME280;61495;53.400;7.608;2023-09-19T05:10:56;100502.22;;;13.27;100.00
73267;BME280;61495;53.400;7.608;2023-09-19T05:13:22;100497.03;;;13.25;100.00
73267;BME280;61495;53.400;7.608;2023-09-19T05:15:51;100494.13;;;13.27;99.83
73267;BME280;61495;53.400;7.608;2023-09-19T05:18:16;100485.00;;;13.28;100.00
73267;BME280;61495;53.400;7.608;2023-09-19T05:20:42;100491.66;;;13.25;100.00
73267;BME280;61495;53.400;7.608;2023-09-19T05:23:08;100499.53;;;13.27;100.00
73267;BME280;61495;53.400;7.608;2023-09-19T05:25:38;100482.78;;;13.25;100.00
73267;BME280;61495;53.400;7.608;2023-09-19T05:28:07;100502.22;;;13.27;100.00
73267;BME280;61495;53.400;7.608;2023-09-19T05:30:34;100500.56;;;13.26;100.00
73267;BME280;61495;53.400;7.608;2023-09-19T05:33:02;100504.91;;;13.27;100.00
73267;BME280;61495;53.400;7.608;2023-09-19T05:35:27;100509.00;;;13.29;100.00
73267;BME280;61495;53.400;7.608;2023-09-19T05:37:54;100523.28;;;13.30;100.00
73267;BME280;61495;53.400;7.608;2023-09-19T05:40:20;100518.47;;;13.32;100.00
73267;BME280;61495;53.400;7.608;2023-09-19T05:42:46;100516.34;;;13.34;100.00
73267;BME280;61495;53.400;7.608;2023-09-19T05:45:13;100523.97;;;13.37;100.00
73267;BME280;61495;53.400;7.608;2023-09-19T05:47:42;100520.44;;;13.36;100.00
73267;BME280;61495;53.400;7.608;2023-09-19T05:50:11;100505.13;;;13.37;100.00
73267;BME280;61495;53.400;7.608;2023-09-19T05:52:37;100509.22;;;13.40;100.00
73267;BME280;61495;53.400;7.608;2023-09-19T05:55:05;100503.63;;;13.41;100.00
73267;BME280;61495;53.400;7.608;2023-09-19T05:57:35;100499.38;;;13.45;100.00
73267;BME280;61495;53.400;7.608;2023-09-19T06:00:00;100501.28;;;13.45;100.00
73267;BME280;61495;53.400;7.608;2023-09-19T06:02:26;100499.38;;;13.45;100.00
73267;BME280;61495;53.400;7.608;2023-09-19T06:04:54;100515.69;;;13.50;100.00
73267;BME280;61495;53.400;7.608;2023-09-19T06:07:21;100515.22;;;13.53;100.00
73267;BME280;61495;53.400;7.608;2023-09-19T06:09:47;100516.81;;;13.54;100.00
73267;BME280;61495;53.400;7.608;2023-09-19T06:12:12;100509.81;;;13.53;100.00
73267;BME280;61495;53.400;7.608;2023-09-19T06:14:43;100504.44;;;13.53;100.00
73267;BME280;61495;53.400;7.608;2023-09-19T06:17:09;100511.59;;;13.59;100.00
73267;BME280;61495;53.400;7.608;2023-09-19T06:19:34;100518.25;;;13.57;100.00
73267;BME280;61495;53.400;7.608;2023-09-19T06:21:59;100513.66;;;13.57;100.00
73267;BME280;61495;53.400;7.608;2023-09-19T06:24:25;100518.00;;;13.58;100.00
73267;BME280;61495;53.400;7.608;2023-09-19T06:26:51;100525.50;;;13.56;100.00
73267;BME280;61495;53.400;7.608;2023-09-19T06:29:17;100535.34;;;13.62;100.00
73267;BME280;61495;53.400;7.608;2023-09-19T06:31:43;100533.00;;;13.66;100.00
73267;BME280;61495;53.400;7.608;2023-09-19T06:34:10;100535.91;;;13.64;100.00
73267;BME280;61495;53.400;7.608;2023-09-19T06:36:35;100542.94;;;13.65;100.00
73267;BME280;61495;53.400;7.608;2023-09-19T06:39:00;100558.03;;;13.66;100.00
73267;BME280;61495;53.400;7.608;2023-09-19T06:41:26;100545.75;;;13.70;100.00
73267;BME280;61495;53.400;7.608;2023-09-19T06:43:51;100553.25;;;13.68;100.00
73267;BME280;61495;53.400;7.608;2023-09-19T06:46:19;100553.81;;;13.70;100.00
73267;BME280;61495;53.400;7.608;2023-09-19T06:48:44;100557.34;;;13.71;100.00
73267;BME280;61495;53.400;7.608;2023-09-19T06:51:10;100557.69;;;13.74;100.00
73267;BME280;61495;53.400;7.608;2023-09-19T06:53:35;100563.09;;;13.74;100.00
73267;BME280;61495;53.400;7.608;2023-09-19T06:56:02;100557.81;;;13.79;100.00
73267;BME280;61495;53.400;7.608;2023-09-19T06:58:27;100554.53;;;13.77;100.00
73267;BME280;61495;53.400;7.608;2023-09-19T07:00:53;100559.47;;;13.80;100.00
73267;BME280;61495;53.400;7.608;2023-09-19T07:03:19;100559.00;;;13.83;100.00
73267;BME280;61495;53.400;7.608;2023-09-19T07:05:47;100565.78;;;13.86;100.00
73267;BME280;61495;53.400;7.608;2023-09-19T07:08:13;100560.38;;;13.86;100.00
73267;BME280;61495;53.400;7.608;2023-09-19T07:10:40;100563.44;;;13.89;100.00
73267;BME280;61495;53.400;7.608;2023-09-19T07:13:07;100556.41;;;13.88;100.00
73267;BME280;61495;53.400;7.608;2023-09-19T07:15:37;100562.97;;;13.93;100.00
73267;BME280;61495;53.400;7.608;2023-09-19T07:18:12;100564.38;;;13.95;100.00
73267;BME280;61495;53.400;7.608;2023-09-19T07:20:40;100565.97;;;13.96;100.00
73267;BME280;61495;53.400;7.608;2023-09-19T07:23:11;100569.50;;;13.97;100.00
73267;BME280;61495;53.400;7.608;2023-09-19T07:25:40;100560.03;;;13.94;100.00
73267;BME280;61495;53.400;7.608;2023-09-19T07:28:06;100570.44;;;14.02;100.00
73267;BME280;61495;53.400;7.608;2023-09-19T07:30:31;100579.81;;;14.00;100.00
73267;BME280;61495;53.400;7.608;2023-09-19T07:32:57;100572.78;;;13.99;100.00
73267;BME280;61495;53.400;7.608;2023-09-19T07:35:23;100573.94;;;14.03;100.00
73267;BME280;61495;53.400;7.608;2023-09-19T07:37:49;100585.06;;;14.06;100.00
73267;BME280;61495;53.400;7.608;2023-09-19T07:40:15;100582.13;;;14.08;100.00
73267;BME280;61495;53.400;7.608;2023-09-19T07:42:41;100574.19;;;14.13;100.00
73267;BME280;61495;53.400;7.608;2023-09-19T07:45:08;100587.19;;;14.16;100.00
73267;BME280;61495;53.400;7.608;2023-09-19T07:47:34;100566.19;;;14.18;100.00
73267;BME280;61495;53.400;7.608;2023-09-19T07:49:59;100564.69;;;14.22;99.47
73267;BME280;61495;53.400;7.608;2023-09-19T07:52:27;100566.91;;;14.25;99.41
73267;BME280;61495;53.400;7.608;2023-09-19T07:54:53;100573.09;;;14.25;98.70
73267;BME280;61495;53.400;7.608;2023-09-19T07:57:19;100573.81;;;14.32;99.06
73267;BME280;61495;53.400;7.608;2023-09-19T07:59:45;100569.00;;;14.34;99.26
73267;BME280;61495;53.400;7.608;2023-09-19T08:02:11;100569.81;;;14.35;97.97
73267;BME280;61495;53.400;7.608;2023-09-19T08:04:44;100576.38;;;14.39;98.10
73267;BME280;61495;53.400;7.608;2023-09-19T08:07:14;100566.19;;;14.41;97.43
73267;BME280;61495;53.400;7.608;2023-09-19T08:09:39;100567.91;;;14.47;98.72
73267;BME280;61495;53.400;7.608;2023-09-19T08:12:06;100576.09;;;14.52;97.55
73267;BME280;61495;53.400;7.608;2023-09-19T08:14:36;100583.22;;;14.58;97.87
73267;BME280;61495;53.400;7.608;2023-09-19T08:17:02;100577.34;;;14.61;98.28
73267;BME280;61495;53.400;7.608;2023-09-19T08:19:28;100581.22;;;14.65;97.05
73267;BME280;61495;53.400;7.608;2023-09-19T08:21:57;100574.31;;;14.69;97.35
73267;BME280;61495;53.400;7.608;2023-09-19T08:24:29;100584.13;;;14.75;96.79
73267;BME280;61495;53.400;7.608;2023-09-19T08:26:56;100580.47;;;14.81;96.59
73267;BME280;61495;53.400;7.608;2023-09-19T08:29:25;100570.59;;;14.87;96.62
73267;BME280;61495;53.400;7.608;2023-09-19T08:31:58;100574.19;;;14.92;96.95
73267;BME280;61495;53.400;7.608;2023-09-19T08:34:24;100579.69;;;14.97;96.06
73267;BME280;61495;53.400;7.608;2023-09-19T08:36:51;100574.38;;;15.02;96.00
73267;BME280;61495;53.400;7.608;2023-09-19T08:39:19;100577.41;;;15.06;95.75
73267;BME280;61495;53.400;7.608;2023-09-19T08:41:45;100586.53;;;15.17;95.14
73267;BME280;61495;53.400;7.608;2023-09-19T08:44:10;100595.25;;;15.24;96.47
73267;BME280;61495;53.400;7.608;2023-09-19T08:46:37;100589.97;;;15.29;95.00
73267;BME280;61495;53.400;7.608;2023-09-19T08:49:19;100593.91;;;15.38;93.95
73267;BME280;61495;53.400;7.608;2023-09-19T08:51:54;100586.72;;;15.43;93.44
73267;BME280;61495;53.400;7.608;2023-09-19T08:54:28;100592.13;;;15.60;92.97
73267;BME280;61495;53.400;7.608;2023-09-19T08:56:55;100602.94;;;15.77;93.69
73267;BME280;61495;53.400;7.608;2023-09-19T08:59:25;100592.69;;;15.95;93.25
73267;BME280;61495;53.400;7.608;2023-09-19T09:01:54;100591.25;;;16.09;92.82
73267;BME280;61495;53.400;7.608;2023-09-19T09:04:22;100594.16;;;16.25;92.81
73267;BME280;61495;53.400;7.608;2023-09-19T09:06:48;100596.53;;;16.38;91.93
73267;BME280;61495;53.400;7.608;2023-09-19T09:09:16;100601.91;;;16.54;91.78
73267;BME280;61495;53.400;7.608;2023-09-19T09:11:42;100606.38;;;16.65;90.86
73267;BME280;61495;53.400;7.608;2023-09-19T09:14:07;100603.47;;;16.72;90.18
73267;BME280;61495;53.400;7.608;2023-09-19T09:16:33;100606.16;;;16.72;88.01
73267;BME280;61495;53.400;7.608;2023-09-19T09:18:59;100593.22;;;16.74;86.67
73267;BME280;61495;53.400;7.608;2023-09-19T09:21:25;100592.09;;;16.70;85.63
73267;BME280;61495;53.400;7.608;2023-09-19T09:23:51;100602.72;;;16.77;86.04
73267;BME280;61495;53.400;7.608;2023-09-19T09:26:41;100604.13;;;16.84;86.09
73267;BME280;61495;53.400;7.608;2023-09-19T09:29:10;100600.19;;;16.92;86.72
73267;BME280;61495;53.400;7.608;2023-09-19T09:31:36;100603.72;;;16.92;85.56
73267;BME280;61495;53.400;7.608;2023-09-19T09:34:03;100590.19;;;16.92;85.82
73267;BME280;61495;53.400;7.608;2023-09-19T09:36:36;100593.47;;;16.99;85.58
73267;BME280;61495;53.400;7.608;2023-09-19T09:39:02;100614.59;;;16.97;85.31
73267;BME280;61495;53.400;7.608;2023-09-19T09:41:48;100606.47;;;16.97;86.00
73267;BME280;61495;53.400;7.608;2023-09-19T09:44:16;100615.72;;;17.01;86.22
73267;BME280;61495;53.400;7.608;2023-09-19T09:46:48;100606.13;;;17.15;85.93
73267;BME280;61495;53.400;7.608;2023-09-19T09:49:40;100608.25;;;17.13;85.18
73267;BME280;61495;53.400;7.608;2023-09-19T09:52:07;100607.72;;;17.16;85.43
73267;BME280;61495;53.400;7.608;2023-09-19T09:54:34;100601.88;;;17.25;85.39
73267;BME280;61495;53.400;7.608;2023-09-19T09:57:10;100607.88;;;17.32;84.51
73267;BME280;61495;53.400;7.608;2023-09-19T10:02:18;100605.16;;;17.32;83.38
73267;BME280;61495;53.400;7.608;2023-09-19T10:04:54;100611.22;;;17.39;84.37
73267;BME280;61495;53.400;7.608;2023-09-19T10:07:28;100609.13;;;17.46;84.63
73267;BME280;61495;53.400;7.608;2023-09-19T10:09:58;100610.34;;;17.60;85.38
73267;BME280;61495;53.400;7.608;2023-09-19T10:12:31;100616.66;;;17.70;84.08
73267;BME280;61495;53.400;7.608;2023-09-19T10:14:59;100612.31;;;17.69;82.48
73267;BME280;61495;53.400;7.608;2023-09-19T10:17:25;100612.31;;;17.69;83.55
73267;BME280;61495;53.400;7.608;2023-09-19T10:19:56;100609.84;;;17.68;82.01
73267;BME280;61495;53.400;7.608;2023-09-19T10:22:30;100608.78;;;17.69;82.59
73267;BME280;61495;53.400;7.608;2023-09-19T10:24:57;100600.72;;;17.79;82.45
73267;BME280;61495;53.400;7.608;2023-09-19T10:27:26;100594.34;;;17.95;82.90
73267;BME280;61495;53.400;7.608;2023-09-19T10:29:52;100601.88;;;17.88;80.43
73267;BME280;61495;53.400;7.608;2023-09-19T10:32:22;100607.25;;;17.83;81.62
73267;BME280;61495;53.400;7.608;2023-09-19T10:34:49;100616.56;;;17.92;82.82
73267;BME280;61495;53.400;7.608;2023-09-19T10:37:16;100592.75;;;17.99;81.53
73267;BME280;61495;53.400;7.608;2023-09-19T10:39:46;100588.75;;;18.12;81.60
73267;BME280;61495;53.400;7.608;2023-09-19T10:42:14;100584.72;;;18.19;81.32
73267;BME280;61495;53.400;7.608;2023-09-19T10:44:42;100582.53;;;18.16;79.92
73267;BME280;61495;53.400;7.608;2023-09-19T10:47:10;100589.34;;;18.24;81.41
73267;BME280;61495;53.400;7.608;2023-09-19T10:49:43;100579.84;;;18.16;79.86
73267;BME280;61495;53.400;7.608;2023-09-19T10:52:13;100585.78;;;18.13;80.24
73267;BME280;61495;53.400;7.608;2023-09-19T10:54:46;100573.56;;;18.11;79.59
73267;BME280;61495;53.400;7.608;2023-09-19T10:57:23;100576.00;;;18.12;80.43
73267;BME280;61495;53.400;7.608;2023-09-19T11:00:08;100572.25;;;18.18;79.95
73267;BME280;61495;53.400;7.608;2023-09-19T11:05:38;100581.44;;;18.17;80.22
73267;BME280;61495;53.400;7.608;2023-09-19T11:08:08;100572.75;;;18.15;79.02
73267;BME280;61495;53.400;7.608;2023-09-19T11:10:49;100572.78;;;18.20;78.52
73267;BME280;61495;53.400;7.608;2023-09-19T11:13:31;100568.00;;;18.38;79.58
73267;BME280;61495;53.400;7.608;2023-09-19T11:26:50;100557.81;;;18.65;77.51
73267;BME280;61495;53.400;7.608;2023-09-19T11:29:32;100575.72;;;18.71;76.71
73267;BME280;61495;53.400;7.608;2023-09-19T11:31:58;100559.44;;;18.66;74.06
73267;BME280;61495;53.400;7.608;2023-09-19T11:37:59;100545.63;;;18.77;76.01
73267;BME280;61495;53.400;7.608;2023-09-19T11:40:08;100554.06;;;18.86;76.06
73267;BME280;61495;53.400;7.608;2023-09-19T11:42:47;100558.41;;;18.87;75.16
73267;BME280;61495;53.400;7.608;2023-09-19T11:48:23;100531.28;;;19.02;74.45
73267;BME280;61495;53.400;7.608;2023-09-19T11:50:50;100547.31;;;19.04;72.00
73267;BME280;61495;53.400;7.608;2023-09-19T11:53:17;100542.69;;;18.94;72.38
73267;BME280;61495;53.400;7.608;2023-09-19T11:55:45;100541.06;;;18.93;71.07
73267;BME280;61495;53.400;7.608;2023-09-19T11:58:12;100544.31;;;18.95;72.31
73267;BME280;61495;53.400;7.608;2023-09-19T12:00:41;100541.59;;;18.95;73.44
73267;BME280;61495;53.400;7.608;2023-09-19T12:03:10;100539.16;;;18.99;72.43
73267;BME280;61495;53.400;7.608;2023-09-19T12:05:36;100514.44;;;18.95;72.41
73267;BME280;61495;53.400;7.608;2023-09-19T12:08:05;100530.47;;;18.97;72.30
73267;BME280;61495;53.400;7.608;2023-09-19T12:10:48;100506.88;;;18.97;72.41
73267;BME280;61495;53.400;7.608;2023-09-19T12:13:18;100515.28;;;19.11;72.92
73267;BME280;61495;53.400;7.608;2023-09-19T12:15:44;100525.31;;;19.10;72.09
73267;BME280;61495;53.400;7.608;2023-09-19T12:18:28;100510.66;;;19.11;73.24
73267;BME280;61495;53.400;7.608;2023-09-19T12:20:55;100515.00;;;19.17;72.96
73267;BME280;61495;53.400;7.608;2023-09-19T12:23:21;100506.31;;;19.20;73.02
73267;BME280;61495;53.400;7.608;2023-09-19T12:25:46;100494.09;;;19.13;71.38
73267;BME280;61495;53.400;7.608;2023-09-19T12:28:14;100507.66;;;19.13;72.74
73267;BME280;61495;53.400;7.608;2023-09-19T12:30:39;100503.06;;;19.13;72.56
73267;BME280;61495;53.400;7.608;2023-09-19T12:33:19;100473.16;;;19.18;73.22
73267;BME280;61495;53.400;7.608;2023-09-19T12:35:46;100476.97;;;19.12;71.34
73267;BME280;61495;53.400;7.608;2023-09-19T12:38:23;100476.97;;;19.02;72.03
73267;BME280;61495;53.400;7.608;2023-09-19T12:40:49;100482.13;;;18.94;71.59
73267;BME280;61495;53.400;7.608;2023-09-19T12:43:17;100477.00;;;18.97;72.60
73267;BME280;61495;53.400;7.608;2023-09-19T12:45:43;100485.38;;;18.96;72.23
73267;BME280;61495;53.400;7.608;2023-09-19T12:48:25;100481.31;;;18.93;72.58
73267;BME280;61495;53.400;7.608;2023-09-19T12:51:09;100480.78;;;18.96;73.20
73267;BME280;61495;53.400;7.608;2023-09-19T12:53:42;100488.09;;;18.91;72.93
73267;BME280;61495;53.400;7.608;2023-09-19T12:56:10;100461.50;;;18.88;72.24
73267;BME280;61495;53.400;7.608;2023-09-19T12:58:57;100475.88;;;18.83;72.89
73267;BME280;61495;53.400;7.608;2023-09-19T13:01:28;100467.16;;;18.71;72.22
73267;BME280;61495;53.400;7.608;2023-09-19T13:06:37;100462.81;;;18.55;73.12
73267;BME280;61495;53.400;7.608;2023-09-19T13:09:12;100457.13;;;18.61;73.58
73267;BME280;61495;53.400;7.608;2023-09-19T13:11:40;100479.91;;;18.60;73.55
73267;BME280;61495;53.400;7.608;2023-09-19T13:19:40;100454.59;;;18.45;74.20
73267;BME280;61495;53.400;7.608;2023-09-19T13:22:44;100465.47;;;18.40;73.69
73267;BME280;61495;53.400;7.608;2023-09-19T13:25:26;100475.72;;;18.32;74.79
73267;BME280;61495;53.400;7.608;2023-09-19T13:27:56;100477.91;;;18.30;74.81
73267;BME280;61495;53.400;7.608;2023-09-19T13:30:23;100460.00;;;18.29;75.72
73267;BME280;61495;53.400;7.608;2023-09-19T13:32:50;100453.22;;;18.27;75.31
73267;BME280;61495;53.400;7.608;2023-09-19T13:35:18;100450.22;;;18.23;75.02